METAR Data
IDs: Format: Raw Decoded Include TAF

Data at: 2254 UTC 02 Aug 2021

LBPD 022230Z AUTO 34005KT 280V360 9999 NCD 27/07 Q1011